Time;durP1;ratioP1;P1;durP2;ratioP2;P2;SDS_P1;SDS_P2;PMS_P1;PMS_P2;Temp;Humidity;BMP_temperature;BMP_pressure;BME280_temperature;BME280_humidity;BME280_pressure;Samples;Min_cycle;Max_cycle;Signal;HPM_P1;HPM_P2
2023/12/13 00:01:36;;;;;;;0.82;0.82;;;8.70;99.90;;;;;;5013229;28;20037;-40
2023/12/13 00:04:01;;;;;;;1.00;1.00;;;8.70;99.90;;;;;;5010246;28;20036;-39
2023/12/13 00:06:28;;;;;;;0.80;0.80;;;8.70;99.90;;;;;;5015194;28;20022;-40
2023/12/13 00:08:54;;;;;;;0.73;0.73;;;8.70;99.90;;;;;;5011498;28;20037;-35
2023/12/13 00:11:20;;;;;;;1.10;1.05;;;8.70;99.90;;;;;;5009620;28;20100;-41
2023/12/13 00:13:46;;;;;;;0.90;0.90;;;8.70;99.90;;;;;;5014229;28;20117;-39
2023/12/13 00:16:12;;;;;;;0.75;0.75;;;8.70;99.90;;;;;;5013467;28;20036;-40
2023/12/13 00:18:37;;;;;;;0.70;0.70;;;8.60;99.90;;;;;;5012953;28;20033;-40
2023/12/13 00:21:03;;;;;;;0.60;0.60;;;8.70;99.90;;;;;;5009243;28;20204;-39
2023/12/13 00:23:29;;;;;;;0.80;0.80;;;8.70;99.90;;;;;;5006871;28;20656;-41
2023/12/13 00:25:54;;;;;;;0.82;0.82;;;8.70;99.90;;;;;;5010035;28;20030;-39
2023/12/13 00:28:20;;;;;;;1.20;0.80;;;8.70;99.90;;;;;;5012017;28;20034;-37
2023/12/13 00:30:46;;;;;;;0.85;0.68;;;8.70;99.90;;;;;;5005752;28;20057;-41
2023/12/13 00:33:11;;;;;;;0.80;0.80;;;8.70;99.90;;;;;;5009889;28;20022;-31
2023/12/13 00:35:38;;;;;;;0.90;0.90;;;8.70;99.90;;;;;;5011869;28;20022;-32
2023/12/13 00:38:04;;;;;;;0.90;0.90;;;8.70;99.90;;;;;;5013667;28;20076;-29
2023/12/13 00:40:30;;;;;;;1.45;0.80;;;8.70;99.90;;;;;;5010497;28;20083;-29
2023/12/13 00:42:56;;;;;;;0.98;0.80;;;8.70;99.90;;;;;;5013428;28;20784;-29
2023/12/13 00:45:22;;;;;;;0.70;0.70;;;8.60;99.90;;;;;;5009859;28;20059;-30
2023/12/13 00:47:49;;;;;;;0.90;0.90;;;8.60;99.90;;;;;;5013712;28;20037;-31
2023/12/13 00:50:14;;;;;;;0.55;0.55;;;8.60;99.90;;;;;;5013989;28;20036;-32
2023/12/13 00:52:40;;;;;;;0.60;0.60;;;8.50;99.90;;;;;;5013904;28;20014;-32
2023/12/13 00:55:07;;;;;;;0.70;0.70;;;8.50;99.90;;;;;;5008469;28;20125;-30
2023/12/13 00:57:34;;;;;;;0.60;0.60;;;8.50;99.90;;;;;;5010826;28;20057;-31
2023/12/13 00:59:59;;;;;;;0.60;0.60;;;8.40;99.90;;;;;;5008387;28;20079;-30
2023/12/13 01:02:27;;;;;;;0.60;0.60;;;8.40;99.90;;;;;;5011583;28;20062;-31
2023/12/13 01:04:53;;;;;;;0.60;0.60;;;8.40;99.90;;;;;;5011464;28;20133;-32
2023/12/13 01:07:18;;;;;;;0.63;0.63;;;8.30;99.90;;;;;;5010265;28;20113;-31
2023/12/13 01:09:44;;;;;;;0.45;0.45;;;8.30;99.90;;;;;;5009547;28;20109;-34
2023/12/13 01:12:10;;;;;;;0.52;0.52;;;8.30;99.90;;;;;;5009715;28;20018;-30
2023/12/13 01:14:36;;;;;;;0.60;0.60;;;8.20;99.90;;;;;;5007880;28;20049;-30
2023/12/13 01:17:01;;;;;;;0.60;0.60;;;8.30;99.90;;;;;;5013112;28;20116;-30
2023/12/13 01:19:27;;;;;;;0.60;0.60;;;8.20;99.90;;;;;;5006574;28;20424;-31
2023/12/13 01:21:53;;;;;;;0.60;0.60;;;8.20;99.90;;;;;;5011851;28;20128;-34
2023/12/13 01:24:18;;;;;;;0.50;0.50;;;8.20;99.90;;;;;;5012818;28;20439;-33
2023/12/13 01:26:44;;;;;;;0.50;0.50;;;8.10;99.90;;;;;;5010513;28;20447;-35
2023/12/13 01:29:10;;;;;;;0.80;0.55;;;8.10;99.90;;;;;;5007131;28;20048;-30
2023/12/13 01:31:36;;;;;;;0.60;0.60;;;8.10;99.90;;;;;;5008969;28;20030;-30
2023/12/13 01:34:05;;;;;;;0.60;0.60;;;8.10;99.90;;;;;;5009912;28;20034;-32
2023/12/13 01:36:30;;;;;;;0.70;0.70;;;8.10;99.90;;;;;;5009319;28;20033;-31
2023/12/13 01:38:56;;;;;;;0.60;0.60;;;8.00;99.90;;;;;;5009659;28;20474;-31
2023/12/13 01:41:21;;;;;;;0.95;0.80;;;8.00;99.90;;;;;;5007884;28;20033;-31
2023/12/13 01:43:47;;;;;;;0.60;0.60;;;8.00;99.90;;;;;;5006655;28;20092;-32
2023/12/13 01:46:16;;;;;;;0.50;0.50;;;8.00;99.90;;;;;;5011260;28;20714;-29
2023/12/13 01:48:43;;;;;;;1.73;0.70;;;8.00;99.90;;;;;;5010283;28;20484;-29
2023/12/13 01:51:09;;;;;;;1.40;0.68;;;8.00;99.90;;;;;;5012175;28;20049;-30
2023/12/13 01:53:37;;;;;;;0.60;0.60;;;8.00;99.90;;;;;;5012504;28;20458;-37
2023/12/13 01:56:05;;;;;;;0.60;0.60;;;7.90;99.90;;;;;;5010088;28;20112;-35
2023/12/13 01:58:31;;;;;;;0.70;0.70;;;7.90;99.90;;;;;;5005741;28;20100;-39
2023/12/13 02:00:57;;;;;;;1.98;0.75;;;7.90;99.90;;;;;;5007329;28;20042;-41
2023/12/13 02:03:24;;;;;;;0.70;0.70;;;7.90;99.90;;;;;;5007510;28;20113;-38
2023/12/13 02:05:53;;;;;;;0.60;0.60;;;7.90;99.90;;;;;;5008128;28;20501;-35
2023/12/13 02:08:18;;;;;;;;;;;7.90;99.90;;;;;;5010196;28;20502;-37
2023/12/13 02:10:45;;;;;;;0.75;0.75;;;7.90;99.90;;;;;;5013348;28;19916;-36
2023/12/13 02:13:13;;;;;;;0.70;0.70;;;8.00;99.90;;;;;;5009712;28;20042;-37
2023/12/13 02:15:38;;;;;;;0.77;0.77;;;8.00;99.90;;;;;;5012995;28;20372;-40
2023/12/13 02:18:06;;;;;;;0.70;0.70;;;7.90;99.90;;;;;;5010622;28;20049;-39
2023/12/13 02:20:32;;;;;;;0.80;0.80;;;7.90;99.90;;;;;;5007427;28;20029;-38
2023/12/13 02:22:58;;;;;;;0.70;0.70;;;7.80;99.90;;;;;;5011508;28;20033;-38
2023/12/13 02:25:38;;;;;;;0.80;0.80;;;7.80;99.90;;;;;;5011351;28;20080;-35
2023/12/13 02:28:05;;;;;;;0.80;0.80;;;7.80;99.90;;;;;;5007976;28;20026;-35
2023/12/13 02:30:31;;;;;;;0.80;0.80;;;7.70;99.90;;;;;;5008248;28;20022;-38
2023/12/13 02:32:57;;;;;;;0.68;0.68;;;7.70;99.90;;;;;;5010457;28;20034;-39
2023/12/13 02:35:23;;;;;;;0.80;0.80;;;7.70;99.90;;;;;;5005842;28;20029;-38
2023/12/13 02:37:49;;;;;;;0.90;0.90;;;7.70;99.90;;;;;;5009628;28;20033;-40
2023/12/13 02:40:22;;;;;;;0.80;0.80;;;7.70;99.90;;;;;;5009887;28;20478;-41
2023/12/13 02:42:48;;;;;;;0.70;0.70;;;7.70;99.90;;;;;;5009859;28;20037;-40
2023/12/13 02:45:14;;;;;;;0.60;0.60;;;7.70;99.90;;;;;;5011241;28;20034;-40
2023/12/13 02:47:43;;;;;;;0.60;0.60;;;7.70;99.90;;;;;;5012158;28;20431;-42
2023/12/13 02:50:12;;;;;;;0.52;0.40;;;7.70;99.90;;;;;;5014024;28;20416;-41
2023/12/13 02:52:38;;;;;;;0.60;0.60;;;7.60;99.90;;;;;;5013659;28;20076;-40
2023/12/13 02:55:05;;;;;;;0.70;0.70;;;7.70;99.90;;;;;;5012272;28;20133;-36
2023/12/13 02:57:31;;;;;;;0.80;0.80;;;7.70;99.90;;;;;;5013205;28;20040;-41
2023/12/13 02:59:57;;;;;;;4.45;2.72;;;7.60;99.90;;;;;;5013331;28;20034;-39
2023/12/13 03:02:23;;;;;;;7.72;4.70;;;7.60;99.90;;;;;;5012545;28;20091;-38
2023/12/13 03:04:48;;;;;;;3.67;2.63;;;7.60;99.90;;;;;;5012101;28;20034;-31
2023/12/13 03:07:14;;;;;;;2.83;1.60;;;7.60;99.90;;;;;;5011763;28;20298;-32
2023/12/13 03:09:40;;;;;;;3.95;1.77;;;7.60;99.90;;;;;;5013883;28;20076;-31
2023/12/13 03:12:06;;;;;;;3.17;1.10;;;7.60;99.90;;;;;;5013009;28;20057;-31
2023/12/13 03:14:32;;;;;;;5.25;2.78;;;7.60;99.90;;;;;;5014083;28;20545;-31
2023/12/13 03:16:58;;;;;;;3.50;1.60;;;7.60;99.90;;;;;;5017049;28;20029;-31
2023/12/13 03:19:24;;;;;;;0.65;0.65;;;7.60;99.90;;;;;;5010918;28;20101;-32
2023/12/13 03:21:50;;;;;;;2.30;0.98;;;7.50;99.90;;;;;;5016769;28;20041;-31
2023/12/13 03:24:15;;;;;;;3.70;1.23;;;7.40;99.90;;;;;;5012107;28;20025;-33
2023/12/13 03:26:41;;;;;;;1.40;1.30;;;7.40;99.90;;;;;;5010728;28;20109;-32
2023/12/13 03:29:07;;;;;;;5.55;3.30;;;7.30;99.90;;;;;;5008734;28;20729;-31
2023/12/13 03:31:33;;;;;;;2.75;2.10;;;7.20;99.90;;;;;;5014487;28;20036;-31
2023/12/13 03:34:00;;;;;;;4.55;1.88;;;7.20;99.90;;;;;;5011662;28;20025;-32
2023/12/13 03:36:27;;;;;;;1.38;1.27;;;7.20;99.90;;;;;;5007192;28;20114;-33
2023/12/13 03:38:53;;;;;;;4.68;2.22;;;7.20;99.90;;;;;;5010622;28;20035;-33
2023/12/13 03:41:18;;;;;;;3.72;2.25;;;7.10;99.90;;;;;;5018219;28;21815;-32
2023/12/13 03:43:44;;;;;;;2.15;1.48;;;7.10;99.90;;;;;;5007133;28;20747;-35
2023/12/13 03:46:10;;;;;;;1.20;1.10;;;7.10;99.90;;;;;;5011125;28;20443;-31
2023/12/13 03:48:36;;;;;;;1.88;1.40;;;6.90;99.90;;;;;;5008932;28;22113;-34
2023/12/13 03:51:02;;;;;;;3.17;2.08;;;6.90;99.90;;;;;;5012256;28;20033;-33
2023/12/13 03:53:28;;;;;;;13.68;7.88;;;6.80;99.90;;;;;;5008896;28;20033;-32
2023/12/13 03:55:54;;;;;;;18.75;8.98;;;6.80;99.90;;;;;;5010055;28;20790;-31
2023/12/13 03:58:22;;;;;;;18.30;7.72;;;6.90;99.90;;;;;;5010210;28;20562;-31
2023/12/13 04:00:48;;;;;;;16.70;8.45;;;6.90;99.90;;;;;;5009692;28;20429;-35
2023/12/13 04:03:13;;;;;;;16.60;8.07;;;7.00;99.90;;;;;;5012067;28;20095;-38
2023/12/13 04:05:39;;;;;;;11.93;6.20;;;7.00;99.90;;;;;;5008760;28;20030;-41
2023/12/13 04:08:06;;;;;;;2.75;1.50;;;7.10;99.90;;;;;;5010298;28;20080;-41
2023/12/13 04:10:32;;;;;;;1.73;1.52;;;7.00;99.90;;;;;;5013691;28;20056;-41
2023/12/13 04:12:57;;;;;;;2.03;1.25;;;7.00;99.90;;;;;;5012262;28;20077;-37
2023/12/13 04:15:23;;;;;;;1.70;1.20;;;7.00;99.90;;;;;;5013356;28;20464;-29
2023/12/13 04:17:48;;;;;;;0.90;0.80;;;7.00;99.90;;;;;;5013303;28;20079;-29
2023/12/13 04:20:14;;;;;;;0.80;0.80;;;6.90;99.90;;;;;;5012208;28;20033;-29
2023/12/13 04:22:40;;;;;;;0.85;0.80;;;6.80;99.90;;;;;;5013354;28;20026;-31
2023/12/13 04:25:06;;;;;;;1.23;1.15;;;6.80;99.90;;;;;;5010595;28;20030;-35
2023/12/13 04:27:31;;;;;;;1.05;0.70;;;6.70;99.90;;;;;;5012837;28;20462;-29
2023/12/13 04:29:57;;;;;;;2.17;0.75;;;6.70;99.90;;;;;;5013145;28;20034;-32
2023/12/13 04:32:22;;;;;;;0.80;0.80;;;6.70;99.90;;;;;;5009280;28;20443;-41
2023/12/13 04:34:48;;;;;;;0.65;0.65;;;6.70;99.90;;;;;;5008249;28;20076;-41
2023/12/13 04:37:14;;;;;;;1.00;0.90;;;6.70;99.90;;;;;;5009836;28;20033;-40
2023/12/13 04:39:39;;;;;;;3.92;0.70;;;6.60;99.90;;;;;;5013726;28;20018;-40
2023/12/13 04:42:05;;;;;;;0.80;0.80;;;6.60;99.90;;;;;;5011754;28;20022;-41
2023/12/13 04:44:30;;;;;;;1.92;0.80;;;6.60;99.90;;;;;;5012012;28;20083;-38
2023/12/13 04:46:57;;;;;;;0.80;0.80;;;6.60;99.90;;;;;;5014019;28;20379;-42
2023/12/13 04:49:23;;;;;;;0.60;0.60;;;6.60;99.90;;;;;;5013149;28;20026;-41
2023/12/13 04:51:48;;;;;;;0.80;0.80;;;6.50;99.90;;;;;;5012838;28;20132;-39
2023/12/13 04:54:15;;;;;;;1.08;0.90;;;6.50;99.90;;;;;;5014311;28;20025;-37
2023/12/13 04:56:40;;;;;;;0.70;0.70;;;6.40;99.90;;;;;;5011714;28;20383;-39
2023/12/13 04:59:06;;;;;;;0.85;0.70;;;6.40;99.90;;;;;;5009760;28;20044;-36
2023/12/13 05:01:31;;;;;;;2.35;0.85;;;6.30;99.90;;;;;;5012299;28;20037;-41
2023/12/13 05:03:57;;;;;;;0.77;0.68;;;6.30;99.90;;;;;;5007199;28;20034;-40
2023/12/13 05:06:22;;;;;;;2.85;0.90;;;6.30;99.90;;;;;;5015441;28;20029;-39
2023/12/13 05:08:48;;;;;;;1.38;0.90;;;6.30;99.90;;;;;;5008165;28;20391;-40
2023/12/13 05:11:14;;;;;;;0.90;0.90;;;6.40;99.90;;;;;;5009461;28;20123;-40
2023/12/13 05:13:39;;;;;;;0.80;0.80;;;6.30;99.90;;;;;;5010050;28;20602;-29
2023/12/13 05:16:06;;;;;;;1.23;0.90;;;6.30;99.90;;;;;;5013877;28;20065;-32
2023/12/13 05:18:32;;;;;;;0.85;0.85;;;6.40;99.90;;;;;;5012729;28;20484;-30
2023/12/13 05:20:57;;;;;;;8.05;1.30;;;6.40;99.90;;;;;;5013203;28;20037;-32
2023/12/13 05:23:23;;;;;;;6.43;1.55;;;6.40;99.90;;;;;;5009997;28;20085;-38
2023/12/13 05:25:51;;;;;;;1.20;1.10;;;6.50;99.90;;;;;;5009708;28;20487;-37
2023/12/13 05:28:16;;;;;;;2.13;0.93;;;6.50;99.90;;;;;;5008467;28;20030;-34
2023/12/13 05:30:42;;;;;;;1.00;0.90;;;6.50;99.90;;;;;;5007611;28;20280;-34
2023/12/13 05:33:08;;;;;;;3.35;1.17;;;6.50;99.90;;;;;;5008182;28;20034;-37
2023/12/13 05:35:34;;;;;;;1.58;1.10;;;6.50;99.90;;;;;;5013104;28;20371;-35
2023/12/13 05:38:00;;;;;;;0.82;0.82;;;6.50;99.90;;;;;;5009327;28;20029;-39
2023/12/13 05:40:25;;;;;;;0.70;0.70;;;6.50;99.90;;;;;;5012965;28;20395;-34
2023/12/13 05:42:51;;;;;;;1.50;0.95;;;6.50;99.90;;;;;;5006603;28;20557;-37
2023/12/13 05:45:16;;;;;;;0.68;0.68;;;6.60;99.90;;;;;;5008591;28;20037;-39
2023/12/13 05:47:42;;;;;;;2.13;1.08;;;6.60;99.90;;;;;;5010198;28;20113;-36
2023/12/13 05:50:08;;;;;;;2.70;1.02;;;6.60;99.90;;;;;;5011376;28;20037;-39
2023/12/13 05:52:33;;;;;;;2.50;1.58;;;6.60;99.90;;;;;;5009921;28;20022;-37
2023/12/13 05:54:59;;;;;;;2.35;1.90;;;6.60;99.90;;;;;;5007327;28;20056;-38
2023/12/13 05:57:25;;;;;;;6.18;3.75;;;6.60;99.90;;;;;;5011465;28;20832;-35
2023/12/13 05:59:50;;;;;;;6.25;3.50;;;6.60;99.90;;;;;;5009660;28;20039;-36
2023/12/13 06:02:16;;;;;;;15.75;5.78;;;6.60;99.90;;;;;;5005946;28;20479;-39
2023/12/13 06:04:43;;;;;;;20.98;8.85;;;6.60;99.90;;;;;;5011443;28;20487;-39
2023/12/13 06:07:09;;;;;;;14.90;6.88;;;6.60;99.90;;;;;;5007883;28;20168;-38
2023/12/13 06:09:35;;;;;;;20.08;9.32;;;6.60;99.90;;;;;;5007934;28;20475;-37
2023/12/13 06:12:02;;;;;;;16.70;6.15;;;6.70;99.90;;;;;;5008212;28;20084;-36
2023/12/13 06:14:29;;;;;;;10.43;4.88;;;6.70;99.90;;;;;;5009338;28;20057;-38
2023/12/13 06:16:55;;;;;;;9.50;3.83;;;6.80;99.90;;;;;;5006264;28;20041;-37
2023/12/13 06:19:21;;;;;;;7.45;4.35;;;6.80;99.90;;;;;;5012029;28;20080;-37
2023/12/13 06:21:47;;;;;;;6.07;3.03;;;6.80;99.90;;;;;;5009760;28;20038;-39
2023/12/13 06:24:12;;;;;;;6.50;3.45;;;6.70;99.90;;;;;;5013269;28;20435;-30
2023/12/13 06:26:38;;;;;;;7.60;3.22;;;6.70;99.90;;;;;;5019297;28;20101;-32
2023/12/13 06:29:04;;;;;;;8.18;3.47;;;6.80;99.90;;;;;;5017187;28;20030;-30
2023/12/13 06:31:29;;;;;;;6.07;3.22;;;6.70;99.90;;;;;;5015143;28;20045;-33
2023/12/13 06:33:56;;;;;;;5.40;3.22;;;6.80;99.90;;;;;;5022772;28;20104;-39
2023/12/13 06:36:21;;;;;;;6.40;3.60;;;6.80;99.90;;;;;;5013012;28;20054;-37
2023/12/13 06:38:47;;;;;;;6.35;3.63;;;6.80;99.90;;;;;;5010591;28;21005;-38
2023/12/13 06:41:13;;;;;;;5.18;2.90;;;6.80;99.90;;;;;;5014310;28;20052;-36
2023/12/13 06:43:38;;;;;;;9.20;3.47;;;6.80;99.90;;;;;;5013799;28;20037;-38
2023/12/13 06:46:04;;;;;;;5.88;3.20;;;6.90;99.90;;;;;;5016111;28;20026;-37
2023/12/13 06:48:30;;;;;;;5.72;3.35;;;6.90;99.90;;;;;;5015043;28;20093;-34
2023/12/13 06:50:56;;;;;;;3.65;2.40;;;6.90;99.90;;;;;;5015993;28;20360;-37
2023/12/13 06:53:21;;;;;;;5.07;2.10;;;6.90;99.90;;;;;;5019330;28;20079;-38
2023/12/13 06:55:47;;;;;;;3.72;2.60;;;6.90;99.90;;;;;;5014098;28;20100;-38
2023/12/13 06:58:14;;;;;;;2.80;2.25;;;7.00;99.90;;;;;;5017217;28;20033;-37
2023/12/13 07:00:39;;;;;;;3.67;2.60;;;7.00;99.90;;;;;;5013575;28;20531;-38
2023/12/13 07:03:05;;;;;;;3.60;2.60;;;7.00;99.90;;;;;;5014078;28;20030;-39
2023/12/13 07:05:30;;;;;;;5.00;2.47;;;6.90;99.90;;;;;;5014710;28;20034;-34
2023/12/13 07:07:56;;;;;;;4.35;2.40;;;6.90;99.90;;;;;;5012587;28;20387;-38
2023/12/13 07:10:22;;;;;;;3.35;1.98;;;6.90;99.90;;;;;;5014445;28;20029;-37
2023/12/13 07:12:48;;;;;;;5.15;2.75;;;6.80;99.90;;;;;;5010200;28;20054;-37
2023/12/13 07:15:14;;;;;;;3.33;2.30;;;6.80;99.90;;;;;;5020440;28;20030;-36
2023/12/13 07:17:42;;;;;;;3.33;1.92;;;6.80;99.90;;;;;;5013293;28;20079;-36
2023/12/13 07:20:08;;;;;;;1.80;1.70;;;6.80;99.90;;;;;;5011410;28;20494;-39
2023/12/13 07:22:34;;;;;;;3.30;1.83;;;6.70;99.90;;;;;;5012980;28;20132;-36
2023/12/13 07:25:01;;;;;;;1.60;1.50;;;6.70;99.90;;;;;;5014696;28;20037;-38
2023/12/13 07:27:26;;;;;;;2.55;1.98;;;6.70;99.90;;;;;;5013107;28;20026;-38
2023/12/13 07:29:52;;;;;;;2.30;1.65;;;6.70;99.90;;;;;;5015117;28;20022;-38
2023/12/13 07:32:17;;;;;;;2.25;1.83;;;6.70;99.90;;;;;;5013188;28;20034;-37
2023/12/13 07:34:44;;;;;;;2.00;1.50;;;6.70;99.90;;;;;;5013667;28;20029;-33
2023/12/13 07:37:10;;;;;;;4.05;2.00;;;6.80;99.90;;;;;;5011222;28;20014;-37
2023/12/13 07:39:36;;;;;;;2.55;2.03;;;6.80;99.90;;;;;;5011521;28;20391;-38
2023/12/13 07:42:05;;;;;;;6.18;3.28;;;6.80;99.90;;;;;;5010841;28;20048;-38
2023/12/13 07:44:34;;;;;;;23.63;11.10;;;6.80;99.90;;;;;;5014078;28;20029;-32
2023/12/13 07:47:00;;;;;;;7.30;3.38;;;6.80;99.90;;;;;;5008940;28;20034;-29
2023/12/13 07:49:27;;;;;;;18.33;8.90;;;6.80;99.90;;;;;;5011553;28;20105;-33
2023/12/13 07:51:52;;;;;;;10.63;6.47;;;6.80;99.90;;;;;;5011927;28;20475;-30
2023/12/13 07:54:19;;;;;;;16.55;9.45;;;6.80;99.90;;;;;;5013825;28;20028;-38
2023/12/13 07:56:45;;;;;;;5.60;3.00;;;6.80;99.90;;;;;;5013512;28;20406;-37
2023/12/13 07:59:12;;;;;;;3.10;2.78;;;6.80;99.90;;;;;;5013265;28;20121;-38
2023/12/13 08:01:37;;;;;;;2.63;2.42;;;6.90;99.90;;;;;;5013451;28;20030;-37
2023/12/13 08:04:03;;;;;;;2.00;1.90;;;6.90;99.90;;;;;;5012272;28;20037;-39
2023/12/13 08:06:29;;;;;;;2.42;1.77;;;6.90;99.90;;;;;;5018829;28;20044;-35
2023/12/13 08:08:54;;;;;;;2.10;2.00;;;6.90;99.90;;;;;;5012113;28;20060;-37
2023/12/13 08:11:20;;;;;;;1.73;1.58;;;7.00;99.90;;;;;;5013632;28;20108;-39
2023/12/13 08:13:46;;;;;;;2.05;1.60;;;7.10;99.90;;;;;;5011797;28;20045;-40
2023/12/13 08:16:12;;;;;;;2.00;1.80;;;7.10;99.90;;;;;;5014198;28;20080;-39
2023/12/13 08:18:38;;;;;;;2.20;2.00;;;7.10;99.90;;;;;;5020434;28;20033;-39
2023/12/13 08:21:06;;;;;;;1.92;1.67;;;7.20;99.90;;;;;;5014655;28;20042;-36
2023/12/13 08:23:35;;;;;;;3.50;1.60;;;7.30;99.90;;;;;;5015201;28;20419;-36
2023/12/13 08:26:01;;;;;;;4.43;1.67;;;7.30;99.90;;;;;;5013417;28;20029;-39
2023/12/13 08:28:26;;;;;;;1.63;1.40;;;7.30;99.90;;;;;;5012019;28;20041;-39
2023/12/13 08:30:55;;;;;;;2.15;1.55;;;7.40;99.90;;;;;;5007977;28;20034;-38
2023/12/13 08:33:20;;;;;;;1.45;1.35;;;7.40;99.90;;;;;;5016771;28;20163;-39
2023/12/13 08:35:46;;;;;;;1.60;1.50;;;7.40;99.90;;;;;;5013297;28;20125;-39
2023/12/13 08:38:15;;;;;;;3.50;1.75;;;7.50;99.90;;;;;;5013109;28;20040;-38
2023/12/13 08:40:40;;;;;;;;;;;7.50;99.90;;;;;;5014489;28;20041;-38
2023/12/13 08:43:06;;;;;;;2.33;1.38;;;7.50;99.90;;;;;;5011984;28;19990;-38
2023/12/13 08:45:32;;;;;;;1.48;1.38;;;7.50;99.90;;;;;;5015078;28;20041;-36
2023/12/13 08:47:57;;;;;;;2.22;1.70;;;7.50;99.90;;;;;;5012392;28;20033;-38
2023/12/13 08:50:23;;;;;;;3.40;1.70;;;7.50;99.90;;;;;;5012567;28;20041;-37
2023/12/13 08:52:48;;;;;;;1.60;1.50;;;7.50;99.90;;;;;;5010297;28;20033;-33
2023/12/13 08:55:14;;;;;;;1.98;1.73;;;7.50;99.90;;;;;;5012221;28;20037;-41
2023/12/13 08:57:40;;;;;;;3.05;1.60;;;7.40;99.90;;;;;;5013454;28;20017;-40
2023/12/13 09:00:08;;;;;;;2.25;1.80;;;7.40;99.90;;;;;;5012013;28;20033;-35
2023/12/13 09:02:34;;;;;;;1.60;1.50;;;7.40;99.90;;;;;;5012569;28;20060;-37
2023/12/13 09:05:03;;;;;;;2.25;2.03;;;7.40;99.90;;;;;;5015129;28;20034;-38
2023/12/13 09:07:29;;;;;;;1.95;1.60;;;7.40;99.90;;;;;;5010590;28;20029;-38
2023/12/13 09:09:55;;;;;;;3.90;1.70;;;7.50;99.90;;;;;;5011050;28;20391;-37
2023/12/13 09:12:20;;;;;;;2.17;1.88;;;7.50;99.90;;;;;;5010961;28;20018;-36
2023/12/13 09:14:46;;;;;;;2.67;1.58;;;7.60;99.90;;;;;;5011281;28;20054;-35
2023/12/13 09:17:12;;;;;;;1.77;1.42;;;7.60;99.90;;;;;;5009155;28;20026;-39
2023/12/13 09:19:38;;;;;;;2.63;1.63;;;7.70;99.90;;;;;;5012098;28;20033;-39
2023/12/13 09:22:03;;;;;;;1.98;1.48;;;7.70;99.90;;;;;;5009554;28;20235;-37
2023/12/13 09:24:29;;;;;;;1.95;1.60;;;7.70;99.90;;;;;;5012519;28;20057;-38
2023/12/13 09:26:55;;;;;;;5.60;1.50;;;7.80;99.90;;;;;;5015055;28;20092;-38
2023/12/13 09:29:21;;;;;;;1.67;1.58;;;7.80;99.90;;;;;;5010934;28;20022;-37
2023/12/13 09:31:47;;;;;;;1.67;1.58;;;7.80;99.90;;;;;;5016725;28;20123;-38
2023/12/13 09:34:13;;;;;;;2.28;1.60;;;7.90;99.90;;;;;;5009783;28;20030;-39
2023/12/13 09:36:40;;;;;;;1.30;1.20;;;8.00;99.90;;;;;;5010109;28;20026;-38
2023/12/13 09:39:06;;;;;;;2.13;1.42;;;8.00;99.90;;;;;;5013471;28;20531;-37
2023/12/13 09:41:41;;;;;;;2.50;1.63;;;8.10;99.90;;;;;;5015790;28;20120;-38
2023/12/13 09:44:07;;;;;;;2.08;1.63;;;8.10;99.90;;;;;;5012605;28;20037;-39
2023/12/13 09:46:32;;;;;;;1.77;1.23;;;8.20;99.90;;;;;;5008767;28;20084;-37
2023/12/13 09:48:58;;;;;;;2.15;1.38;;;8.20;99.90;;;;;;5008257;28;20025;-39
2023/12/13 09:51:27;;;;;;;1.30;1.20;;;8.30;99.90;;;;;;5007224;28;20038;-38
2023/12/13 09:53:53;;;;;;;2.35;1.48;;;8.40;99.90;;;;;;5006840;28;20029;-36
2023/12/13 09:56:21;;;;;;;1.40;1.30;;;8.40;99.90;;;;;;5007079;28;20399;-38
2023/12/13 09:58:46;;;;;;;1.92;1.50;;;8.40;99.90;;;;;;5006133;28;20109;-35
2023/12/13 10:01:14;;;;;;;2.78;1.10;;;8.40;99.90;;;;;;5010326;28;20125;-38
2023/12/13 10:03:40;;;;;;;1.67;1.40;;;8.40;99.90;;;;;;5011756;28;21065;-38
2023/12/13 10:06:09;;;;;;;1.67;1.30;;;8.40;99.90;;;;;;5007410;28;20034;-37
2023/12/13 10:08:35;;;;;;;1.17;1.13;;;8.50;99.90;;;;;;5008629;28;20036;-35
2023/12/13 10:11:05;;;;;;;1.45;1.20;;;8.50;99.90;;;;;;5005881;28;20059;-37
2023/12/13 10:13:34;;;;;;;1.42;1.20;;;8.50;99.90;;;;;;5008810;28;20054;-33
2023/12/13 10:16:10;;;;;;;1.35;1.25;;;8.60;99.90;;;;;;5011689;28;20049;-29
2023/12/13 10:18:36;;;;;;;1.20;1.10;;;8.60;99.90;;;;;;5012357;28;20046;-29
2023/12/13 10:21:03;;;;;;;1.50;1.20;;;8.50;99.90;;;;;;5010991;28;20029;-29
2023/12/13 10:23:29;;;;;;;1.65;1.05;;;8.60;99.90;;;;;;5012290;28;20026;-41
2023/12/13 10:25:55;;;;;;;1.63;1.13;;;8.60;99.90;;;;;;5008600;28;20034;-37
2023/12/13 10:28:21;;;;;;;1.00;1.00;;;8.60;99.90;;;;;;5010525;28;20029;-38
2023/12/13 10:30:50;;;;;;;1.20;1.10;;;8.70;99.90;;;;;;5005665;28;20465;-38
2023/12/13 10:33:16;;;;;;;1.33;1.08;;;8.70;99.90;;;;;;5008765;28;20026;-36
2023/12/13 10:35:42;;;;;;;0.95;0.95;;;8.70;99.90;;;;;;5012194;28;20030;-39
2023/12/13 10:38:13;;;;;;;1.08;0.95;;;8.70;99.90;;;;;;5009054;28;20053;-34
2023/12/13 10:40:40;;;;;;;1.15;1.10;;;8.70;99.90;;;;;;5009290;28;20037;-41
2023/12/13 10:43:10;;;;;;;1.38;1.05;;;8.70;99.90;;;;;;5008097;28;20057;-41
2023/12/13 10:45:40;;;;;;;1.40;1.33;;;8.80;99.90;;;;;;5008741;28;20057;-41
2023/12/13 10:48:08;;;;;;;2.63;1.25;;;8.80;99.90;;;;;;5011650;28;20044;-40
2023/12/13 10:50:35;;;;;;;2.88;1.23;;;8.90;99.90;;;;;;5006898;28;20423;-35
2023/12/13 10:53:02;;;;;;;1.05;1.00;;;8.90;99.90;;;;;;5008298;28;22201;-38
2023/12/13 10:55:29;;;;;;;1.95;0.85;;;8.80;99.90;;;;;;5007904;28;20034;-38
2023/12/13 10:57:56;;;;;;;1.48;1.20;;;8.80;99.90;;;;;;5006596;28;20065;-39
2023/12/13 11:00:25;;;;;;;1.10;0.90;;;8.70;99.90;;;;;;5008897;28;20043;-39
2023/12/13 11:03:20;;;;;;;0.60;0.60;;;8.70;99.90;;;;;;5005005;28;20121;-41
2023/12/13 11:05:46;;;;;;;0.70;0.70;;;8.70;99.90;;;;;;5007621;28;20123;-40
2023/12/13 11:08:20;;;;;;;1.08;0.90;;;8.80;99.90;;;;;;5013213;28;20747;-40
2023/12/13 11:11:02;;;;;;;0.70;0.70;;;8.70;99.90;;;;;;5010758;28;20038;-41
2023/12/13 11:13:28;;;;;;;1.00;1.00;;;8.70;99.90;;;;;;5007480;28;20045;-37
2023/12/13 11:15:54;;;;;;;3.10;0.80;;;8.70;99.90;;;;;;5009491;28;20193;-40
2023/12/13 11:18:24;;;;;;;0.95;0.95;;;8.70;99.90;;;;;;5011559;28;20394;-41
2023/12/13 11:20:58;;;;;;;0.80;0.80;;;8.70;99.90;;;;;;5012947;28;20029;-32
2023/12/13 11:23:27;;;;;;;0.80;0.73;;;8.70;99.90;;;;;;5009271;28;20167;-31
2023/12/13 11:25:55;;;;;;;0.90;0.90;;;8.70;99.90;;;;;;5014177;28;20493;-31
2023/12/13 11:28:22;;;;;;;2.47;1.40;;;8.70;99.90;;;;;;5011297;28;20033;-31
2023/12/13 11:30:48;;;;;;;1.63;0.90;;;8.70;99.90;;;;;;5010754;28;20377;-31
2023/12/13 11:33:23;;;;;;;2.28;0.93;;;8.60;99.90;;;;;;5013341;28;20147;-35
2023/12/13 11:35:51;;;;;;;3.78;1.17;;;8.60;99.90;;;;;;5010415;28;20475;-36
2023/12/13 11:38:17;;;;;;;1.88;1.00;;;8.70;99.90;;;;;;5010080;28;20034;-35
2023/12/13 11:40:43;;;;;;;0.88;0.88;;;8.60;99.90;;;;;;5015350;28;20041;-37
2023/12/13 11:43:08;;;;;;;2.67;1.15;;;8.50;99.90;;;;;;5015690;28;20107;-31
2023/12/13 11:45:34;;;;;;;1.42;0.90;;;8.50;99.90;;;;;;5011234;28;20402;-37
2023/12/13 11:48:01;;;;;;;1.10;1.08;;;8.40;99.90;;;;;;5009285;28;20184;-38
2023/12/13 11:50:26;;;;;;;1.20;1.10;;;8.40;99.90;;;;;;5013241;28;20026;-39
2023/12/13 11:52:52;;;;;;;2.35;0.88;;;8.40;99.90;;;;;;5010410;28;20048;-39
2023/12/13 11:55:21;;;;;;;0.95;0.95;;;8.50;99.90;;;;;;5011572;28;20531;-37
2023/12/13 11:57:48;;;;;;;2.40;1.10;;;8.50;99.90;;;;;;5011791;28;20041;-35
2023/12/13 12:00:18;;;;;;;0.93;0.93;;;8.60;99.90;;;;;;5009850;28;20560;-41
2023/12/13 12:02:44;;;;;;;1.38;0.95;;;8.50;99.90;;;;;;5010084;28;20606;-33
2023/12/13 12:05:11;;;;;;;0.82;0.77;;;8.60;99.90;;;;;;5012370;28;20073;-41
2023/12/13 12:07:37;;;;;;;1.25;1.15;;;8.60;99.90;;;;;;5013460;28;20844;-41
2023/12/13 12:10:04;;;;;;;1.10;1.05;;;8.60;99.90;;;;;;5007360;28;20105;-41
2023/12/13 12:12:30;;;;;;;1.75;0.98;;;8.60;99.90;;;;;;5012263;28;20090;-41
2023/12/13 12:14:55;;;;;;;0.90;0.90;;;8.60;99.90;;;;;;5010340;28;20463;-41
2023/12/13 12:17:21;;;;;;;1.75;1.00;;;8.70;99.90;;;;;;5011037;28;20030;-39
2023/12/13 12:19:47;;;;;;;1.10;1.00;;;8.70;99.90;;;;;;5006278;28;20026;-40
2023/12/13 12:22:13;;;;;;;2.25;1.17;;;8.70;99.90;;;;;;5015225;28;20144;-41
2023/12/13 12:24:39;;;;;;;0.85;0.85;;;8.70;99.90;;;;;;5010592;28;20455;-39
2023/12/13 12:27:11;;;;;;;1.00;0.93;;;8.70;99.90;;;;;;5009748;28;20029;-37
2023/12/13 12:29:38;;;;;;;2.17;0.80;;;8.70;99.90;;;;;;5008246;28;20022;-38
2023/12/13 12:32:08;;;;;;;0.90;0.90;;;8.70;99.90;;;;;;5008047;28;20069;-39
2023/12/13 12:34:35;;;;;;;0.90;0.90;;;8.70;99.90;;;;;;5009521;28;20018;-30
2023/12/13 12:37:02;;;;;;;0.82;0.82;;;8.70;99.90;;;;;;5008640;28;20083;-31
2023/12/13 12:39:29;;;;;;;1.02;0.95;;;8.70;99.90;;;;;;5013036;28;20063;-29
2023/12/13 12:41:55;;;;;;;1.20;1.10;;;8.70;99.90;;;;;;5009499;28;20041;-30
2023/12/13 12:44:21;;;;;;;1.40;1.17;;;8.70;99.90;;;;;;5014977;28;20096;-30
2023/12/13 12:46:46;;;;;;;1.65;1.20;;;8.80;99.90;;;;;;5010202;28;20892;-30
2023/12/13 12:49:12;;;;;;;1.13;1.00;;;8.80;99.90;;;;;;5012544;28;20475;-29
2023/12/13 12:51:38;;;;;;;1.45;1.20;;;8.80;99.90;;;;;;5013381;28;20105;-31
2023/12/13 12:54:05;;;;;;;1.42;1.17;;;8.70;99.90;;;;;;5010169;28;20064;-29